Chiang Mai, Thailand

09:32 AM ICT on November 27, 2014 (GMT +0700)
ThaiWx Station | Change Station
CLOSE
Current Station
Personal Weather Stations
Location: Chiang Mai, Pa Daet
Elevation: 1007 ft
Nearby Weather Stations

Elev 1007 ft 18.77 °N, 98.97 °E | Updated 2 minutes ago

Partly Cloudy
Växlande molnighet
75.6 °F
Feels Like 77 °F
N
0.0
Vind Växlande Vind from SO
Gusts 3.6 miles/tim

Idag
High -- | Low -- °F
--% Chance of Precip.
Yesterday
High -- | Low -- °F
Precip. -- tum
6:37 AM 5:45 PM
Första kvarteret, 25% visible
Lufttryck 30.01 tum
Sikt 5.0 miles
Molnigt Few 4000 ft
Värmeindex 77 °F
Daggpunkt 66 °F
Luftfuktighet 74%
Rainfall 0.00 tum
Snow Depth Not available.
UV 4 out of 12
Pollen Not available.
Air Quality Not available.
Flu Activity Not available.
METAR VTCC 270200Z 03001KT 8000 FEW040 22/18 Q1016 A3002 NOSIG

More Conditions Fewer Conditions

Lufttryck 30.01 tum
Sikt 5.0 miles
Molnigt Few 4000 ft
Värmeindex 77 °F
Daggpunkt 66 °F
Luftfuktighet 74%
Rainfall 0.00 tum
Snow Depth Not available.
UV 4 out of 12
Pollen Not available.
Air Quality Not available.
Flu Activity Not available.
METAR VTCC 270200Z 03001KT 8000 FEW040 22/18 Q1016 A3002 NOSIG

More Conditions Fewer Conditions

10-Day Weather Forecast

Almanac

Astronomi

Nov. 27, 2014 Rise Set
Actual Time
Civil Twilight
Nautical Twilight
Astronomical Twilight
Månen
Length Of Visible Light
Dagens längd
Tomorrow will be .
, % of the Moon is Illuminated

Today's Extremes

Country Highs Country Lows

Community

WunderPhotos

Upload Photos

1,773,948 photos uploaded!

WunderBlogs® & News

Nearby

Air Quality

  Air Quality AQ Index Pollutant
Not available.

Snödjup

Station Depth Elevation

Earthquake Activity

Stad Distance Mag. Time & Date
Minimum magnitude displayed is 2.5.

Coastal Water Temperatures

Plats Temperatur

Nearby Weather Stations